createdAt,value
2022-11-05T00:00:37.293Z,8.80
2022-11-05T00:03:23.186Z,8.70
2022-11-05T00:06:12.807Z,8.70
2022-11-05T00:08:59.816Z,8.60
2022-11-05T00:11:46.697Z,8.50
2022-11-05T00:14:32.493Z,8.50
2022-11-05T00:16:59.238Z,8.50
2022-11-05T00:19:26.053Z,8.40
2022-11-05T00:22:11.441Z,8.40
2022-11-05T00:24:57.120Z,8.40
2022-11-05T00:27:23.952Z,8.40
2022-11-05T00:29:50.716Z,8.40
2022-11-05T00:32:17.546Z,8.40
2022-11-05T00:34:44.314Z,8.40
2022-11-05T00:37:11.052Z,8.50
2022-11-05T00:39:37.785Z,8.50
2022-11-05T00:42:34.290Z,8.50
2022-11-05T00:45:00.999Z,8.50
2022-11-05T00:47:46.751Z,8.50
2022-11-05T00:50:14.073Z,8.50
2022-11-05T00:53:01.060Z,8.50
2022-11-05T00:55:29.304Z,8.50
2022-11-05T00:57:58.414Z,8.40
2022-11-05T01:00:28.128Z,8.40
2022-11-05T01:02:58.553Z,8.40
2022-11-05T01:05:25.830Z,8.40
2022-11-05T01:07:53.717Z,8.30
2022-11-05T01:10:22.068Z,8.30
2022-11-05T01:12:49.045Z,8.30
2022-11-05T01:15:17.804Z,8.30
2022-11-05T01:17:48.547Z,8.30
2022-11-05T01:20:16.480Z,8.20
2022-11-05T01:22:43.868Z,8.20
2022-11-05T01:25:10.879Z,8.20
2022-11-05T01:27:38.314Z,8.20
2022-11-05T01:30:07.260Z,8.20
2022-11-05T01:32:35.750Z,8.20
2022-11-05T01:35:04.102Z,8.20
2022-11-05T01:37:30.910Z,8.20
2022-11-05T01:39:57.675Z,8.10
2022-11-05T01:42:26.320Z,8.10
2022-11-05T01:45:16.234Z,8.10
2022-11-05T01:48:03.029Z,8.10
2022-11-05T01:50:35.699Z,8.00
2022-11-05T01:53:12.431Z,8.00
2022-11-05T01:55:45.164Z,8.00
2022-11-05T01:58:17.937Z,8.00
2022-11-05T02:00:45.065Z,8.10
2022-11-05T02:03:14.982Z,8.10
2022-11-05T02:05:42.184Z,8.10
2022-11-05T02:08:17.868Z,8.10
2022-11-05T02:10:45.959Z,8.20
2022-11-05T02:13:14.702Z,8.20
2022-11-05T02:15:43.699Z,8.20
2022-11-05T02:18:41.838Z,8.20
2022-11-05T02:21:38.551Z,8.30
2022-11-05T02:24:27.185Z,8.30
2022-11-05T02:27:19.525Z,8.30
2022-11-05T02:29:52.036Z,8.30
2022-11-05T02:32:39.963Z,8.20
2022-11-05T02:35:18.460Z,8.20
2022-11-05T02:37:52.377Z,8.10
2022-11-05T02:40:44.458Z,8.10
2022-11-05T02:43:36.837Z,8.00
2022-11-05T02:46:26.632Z,8.00
2022-11-05T02:49:05.769Z,8.00
2022-11-05T02:51:41.543Z,7.90
2022-11-05T02:54:16.919Z,7.90
2022-11-05T02:56:48.178Z,7.90
2022-11-05T02:59:17.219Z,7.90
2022-11-05T03:01:46.633Z,7.90
2022-11-05T03:04:16.478Z,7.90
2022-11-05T03:07:06.773Z,7.90
2022-11-05T03:10:00.545Z,7.90
2022-11-05T03:12:31.549Z,7.80
2022-11-05T03:15:32.235Z,7.80
2022-11-05T03:18:16.658Z,7.80
2022-11-05T03:20:58.734Z,7.80
2022-11-05T03:23:51.154Z,7.80
2022-11-05T03:26:26.309Z,7.80
2022-11-05T03:29:08.961Z,7.80
2022-11-05T03:31:38.454Z,7.70
2022-11-05T03:34:07.055Z,7.70
2022-11-05T03:36:41.746Z,7.70
2022-11-05T03:39:12.665Z,7.70
2022-11-05T03:41:43.249Z,7.70
2022-11-05T03:44:13.232Z,7.60
2022-11-05T03:46:49.309Z,7.60
2022-11-05T03:49:20.913Z,7.60
2022-11-05T03:52:07.432Z,7.60
2022-11-05T03:54:35.241Z,7.60
2022-11-05T03:57:36.452Z,7.60
2022-11-05T04:00:07.572Z,7.70
2022-11-05T04:02:39.028Z,7.70
2022-11-05T04:05:06.215Z,7.70
2022-11-05T04:07:52.730Z,7.70
2022-11-05T04:10:38.891Z,7.80
2022-11-05T04:13:24.328Z,7.80
2022-11-05T04:16:15.317Z,7.80
2022-11-05T04:18:42.714Z,7.80
2022-11-05T04:21:30.864Z,7.80
2022-11-05T04:24:09.876Z,7.90
2022-11-05T04:26:43.642Z,7.90
2022-11-05T04:29:29.585Z,7.90
2022-11-05T04:31:56.862Z,7.90
2022-11-05T04:34:23.777Z,7.90
2022-11-05T04:36:53.290Z,8.00
2022-11-05T04:39:20.859Z,8.00
2022-11-05T04:41:49.316Z,8.00
2022-11-05T04:44:16.573Z,8.10
2022-11-05T04:46:43.601Z,8.10
2022-11-05T04:49:13.313Z,8.20
2022-11-05T04:51:40.327Z,8.30
2022-11-05T04:54:07.768Z,8.30
2022-11-05T04:56:37.258Z,8.30
2022-11-05T04:59:04.097Z,8.40
2022-11-05T05:01:30.955Z,8.40
2022-11-05T05:03:57.974Z,8.40
2022-11-05T05:06:24.834Z,8.40
2022-11-05T05:08:52.118Z,8.40
2022-11-05T05:11:21.365Z,8.40
2022-11-05T05:13:48.606Z,8.40
2022-11-05T05:16:26.283Z,8.40
2022-11-05T05:18:54.893Z,8.30
2022-11-05T05:21:41.728Z,8.20
2022-11-05T05:24:12.215Z,8.10
2022-11-05T05:26:41.429Z,8.10
2022-11-05T05:29:09.738Z,8.00
2022-11-05T05:31:37.654Z,8.00
2022-11-05T05:34:05.341Z,7.90
2022-11-05T05:36:32.716Z,7.90
2022-11-05T05:38:59.442Z,7.80
2022-11-05T05:41:26.256Z,7.80
2022-11-05T05:43:53.014Z,7.70
2022-11-05T05:46:20.018Z,7.70
2022-11-05T05:48:52.131Z,7.60
2022-11-05T05:51:19.259Z,7.60
2022-11-05T05:53:46.387Z,7.60
2022-11-05T05:56:15.086Z,7.50
2022-11-05T05:58:42.228Z,7.50
2022-11-05T06:01:18.343Z,7.50
2022-11-05T06:03:45.712Z,7.50
2022-11-05T06:06:14.161Z,7.40
2022-11-05T06:08:42.081Z,7.40
2022-11-05T06:11:09.460Z,7.40
2022-11-05T06:13:37.122Z,7.40
2022-11-05T06:16:08.604Z,7.40
2022-11-05T06:18:35.840Z,7.30
2022-11-05T06:21:07.871Z,7.30
2022-11-05T06:23:35.982Z,7.30
2022-11-05T06:26:08.223Z,7.30
2022-11-05T06:28:35.434Z,7.30
2022-11-05T06:31:02.308Z,7.30
2022-11-05T06:33:29.388Z,7.30
2022-11-05T06:35:59.159Z,7.30
2022-11-05T06:38:25.902Z,7.30
2022-11-05T06:40:52.869Z,7.40
2022-11-05T06:43:19.674Z,7.40
2022-11-05T06:45:46.484Z,7.40
2022-11-05T06:48:13.225Z,7.40
2022-11-05T06:50:44.477Z,7.40
2022-11-05T06:53:12.132Z,7.40
2022-11-05T06:55:39.417Z,7.40
2022-11-05T06:58:06.445Z,7.40
2022-11-05T07:00:33.271Z,7.40
2022-11-05T07:03:07.152Z,7.30
2022-11-05T07:05:37.241Z,7.30
2022-11-05T07:08:04.220Z,7.30
2022-11-05T07:10:31.005Z,7.30
2022-11-05T07:12:57.783Z,7.30
2022-11-05T07:15:24.617Z,7.30
2022-11-05T07:17:56.148Z,7.30
2022-11-05T07:20:22.953Z,7.40
2022-11-05T07:22:49.724Z,7.40
2022-11-05T07:25:16.590Z,7.40
2022-11-05T07:27:43.689Z,7.50
2022-11-05T07:30:10.815Z,7.60
2022-11-05T07:32:40.806Z,7.70
2022-11-05T07:35:09.157Z,7.80
2022-11-05T07:37:46.500Z,7.80
2022-11-05T07:40:14.929Z,7.80
2022-11-05T07:42:43.515Z,7.80
2022-11-05T07:45:11.361Z,7.90
2022-11-05T07:47:45.758Z,7.90
2022-11-05T07:50:12.513Z,7.90
2022-11-05T07:52:39.209Z,7.90
2022-11-05T07:55:06.536Z,7.90
2022-11-05T07:57:39.673Z,8.00
2022-11-05T08:00:07.072Z,8.00
2022-11-05T08:02:39.484Z,8.00
2022-11-05T08:05:07.319Z,8.00
2022-11-05T08:07:34.269Z,8.10
2022-11-05T08:10:03.508Z,8.20
2022-11-05T08:12:31.961Z,8.20
2022-11-05T08:14:58.801Z,8.20
2022-11-05T08:17:25.720Z,8.30
2022-11-05T08:19:52.787Z,8.30
2022-11-05T08:22:19.732Z,8.40
2022-11-05T08:24:46.583Z,8.50
2022-11-05T08:27:13.643Z,8.60
2022-11-05T08:29:40.431Z,8.60
2022-11-05T08:32:07.331Z,8.70
2022-11-05T08:34:34.066Z,8.70
2022-11-05T08:37:02.008Z,8.80
2022-11-05T08:39:29.172Z,8.90
2022-11-05T08:41:56.017Z,9.00
2022-11-05T08:44:22.749Z,9.00
2022-11-05T08:46:49.784Z,9.20
2022-11-05T08:49:16.768Z,9.40
2022-11-05T08:51:44.842Z,9.60
2022-11-05T08:54:11.886Z,9.80
2022-11-05T08:56:38.791Z,9.90
2022-11-05T08:59:06.062Z,10.00
2022-11-05T09:01:33.870Z,10.10
2022-11-05T09:04:00.881Z,10.30
2022-11-05T09:06:27.965Z,10.40
2022-11-05T09:08:55.022Z,10.50
2022-11-05T09:11:22.063Z,10.70
2022-11-05T09:13:48.845Z,11.10
2022-11-05T09:16:24.863Z,11.30
2022-11-05T09:18:52.503Z,11.40
2022-11-05T09:21:19.709Z,11.40
2022-11-05T09:23:47.331Z,11.40
2022-11-05T09:26:14.529Z,11.40
2022-11-05T09:28:43.211Z,11.30
2022-11-05T09:31:11.719Z,11.40
2022-11-05T09:33:40.247Z,11.40
2022-11-05T09:36:07.881Z,11.40
2022-11-05T09:38:35.483Z,11.30
2022-11-05T09:41:08.771Z,11.30
2022-11-05T09:43:50.188Z,11.40
2022-11-05T09:46:22.298Z,11.40
2022-11-05T09:48:54.321Z,11.40
2022-11-05T09:51:24.092Z,11.40
2022-11-05T09:53:51.775Z,11.50
2022-11-05T09:56:29.322Z,11.50
2022-11-05T09:59:06.168Z,11.60
2022-11-05T10:01:37.918Z,11.80
2022-11-05T10:04:13.174Z,12.00
2022-11-05T10:07:02.987Z,12.20
2022-11-05T10:09:43.214Z,12.40
2022-11-05T10:12:39.997Z,12.50
2022-11-05T10:15:21.948Z,12.60
2022-11-05T10:17:54.343Z,12.60
2022-11-05T10:20:36.746Z,12.70
2022-11-05T10:23:18.814Z,12.70
2022-11-05T10:25:58.132Z,12.70
2022-11-05T10:28:31.973Z,12.70
2022-11-05T10:31:08.771Z,12.60
2022-11-05T10:33:43.781Z,12.60
2022-11-05T10:36:16.985Z,12.60
2022-11-05T10:38:43.794Z,12.60
2022-11-05T10:41:29.384Z,12.60
2022-11-05T10:44:34.628Z,12.60
2022-11-05T10:47:13.113Z,12.70
2022-11-05T10:49:48.917Z,12.70
2022-11-05T10:52:41.422Z,12.70
2022-11-05T10:55:25.418Z,12.70
2022-11-05T10:57:52.658Z,12.70
2022-11-05T11:00:21.813Z,12.80
2022-11-05T11:02:55.263Z,12.80
2022-11-05T11:05:32.938Z,12.80
2022-11-05T11:08:23.948Z,12.80
2022-11-05T11:10:54.384Z,12.90
2022-11-05T11:13:48.748Z,13.00
2022-11-05T11:16:20.126Z,13.10
2022-11-05T11:18:46.861Z,13.10
2022-11-05T11:21:16.612Z,13.10
2022-11-05T11:23:53.295Z,13.10
2022-11-05T11:26:21.789Z,13.20
2022-11-05T11:29:01.706Z,13.30
2022-11-05T11:31:32.329Z,13.40
2022-11-05T11:34:15.896Z,13.60
2022-11-05T11:36:51.301Z,13.70
2022-11-05T11:39:23.120Z,13.90
2022-11-05T11:41:59.158Z,14.10
2022-11-05T11:44:30.657Z,14.50
2022-11-05T11:47:01.981Z,14.90
2022-11-05T11:49:53.707Z,15.50
2022-11-05T11:52:29.349Z,16.10
2022-11-05T11:55:11.344Z,16.50
2022-11-05T11:57:52.775Z,16.50
2022-11-05T12:00:23.353Z,16.20
2022-11-05T12:03:14.368Z,15.90
2022-11-05T12:06:18.483Z,15.80
2022-11-05T12:09:02.074Z,15.90
2022-11-05T12:11:43.674Z,16.20
2022-11-05T12:14:32.904Z,16.50
2022-11-05T12:17:12.155Z,16.60
2022-11-05T12:20:03.542Z,16.70
2022-11-05T12:23:00.500Z,16.80
2022-11-05T12:25:48.882Z,16.50
2022-11-05T12:29:12.087Z,16.10
2022-11-05T12:31:58.351Z,16.10
2022-11-05T12:34:48.381Z,16.10
2022-11-05T12:37:41.434Z,15.90
2022-11-05T12:40:17.078Z,15.60
2022-11-05T12:42:48.705Z,15.50
2022-11-05T12:45:33.685Z,15.30
2022-11-05T12:48:12.461Z,15.20
2022-11-05T12:50:49.390Z,15.20
2022-11-05T12:53:43.334Z,15.10
2022-11-05T12:56:20.118Z,15.00
2022-11-05T12:59:00.888Z,15.00
2022-11-05T13:01:43.191Z,14.80
2022-11-05T13:04:31.664Z,14.60
2022-11-05T13:07:03.976Z,14.50
2022-11-05T13:09:44.124Z,14.50
2022-11-05T13:12:14.583Z,14.40
2022-11-05T13:14:57.856Z,14.40
2022-11-05T13:17:52.914Z,14.30
2022-11-05T13:20:22.767Z,14.30
2022-11-05T13:22:56.305Z,14.30
2022-11-05T13:25:31.329Z,14.40
2022-11-05T13:28:07.154Z,14.40
2022-11-05T13:30:42.356Z,14.40
2022-11-05T13:33:22.461Z,14.30
2022-11-05T13:36:36.233Z,14.40
2022-11-05T13:39:09.221Z,14.50
2022-11-05T13:41:38.732Z,14.50
2022-11-05T13:44:25.262Z,14.50
2022-11-05T13:46:55.133Z,14.40
2022-11-05T13:49:49.648Z,14.50
2022-11-05T13:52:54.699Z,14.50
2022-11-05T13:55:33.126Z,14.40
2022-11-05T13:58:30.862Z,14.30
2022-11-05T14:01:06.717Z,14.20
2022-11-05T14:03:33.690Z,14.20
2022-11-05T14:06:06.533Z,14.10
2022-11-05T14:08:43.448Z,14.00
2022-11-05T14:11:28.314Z,13.80
2022-11-05T14:13:58.931Z,13.80
2022-11-05T14:16:40.292Z,13.70
2022-11-05T14:19:19.184Z,13.60
2022-11-05T14:21:58.950Z,13.50
2022-11-05T14:24:39.032Z,13.40
2022-11-05T14:27:05.785Z,13.40
2022-11-05T14:29:46.838Z,13.30
2022-11-05T14:32:19.769Z,13.20
2022-11-05T14:35:24.917Z,13.10
2022-11-05T14:37:56.856Z,13.00
2022-11-05T14:40:34.344Z,12.90
2022-11-05T14:43:05.502Z,12.90
2022-11-05T14:45:51.930Z,12.80
2022-11-05T14:48:37.579Z,12.70
2022-11-05T14:51:22.999Z,12.70
2022-11-05T14:53:49.968Z,12.70
2022-11-05T14:56:19.184Z,12.60
2022-11-05T14:58:46.707Z,12.60
2022-11-05T15:01:13.758Z,12.60
2022-11-05T15:03:45.833Z,12.60
2022-11-05T15:06:21.998Z,12.50
2022-11-05T15:08:48.787Z,12.50
2022-11-05T15:11:18.774Z,12.40
2022-11-05T15:13:54.479Z,12.50
2022-11-05T15:16:46.388Z,12.50
2022-11-05T15:19:29.088Z,12.50
2022-11-05T15:21:59.360Z,12.50
2022-11-05T15:24:29.827Z,12.40
2022-11-05T15:27:16.685Z,12.40
2022-11-05T15:29:43.495Z,12.30
2022-11-05T15:32:18.151Z,12.30
2022-11-05T15:34:53.720Z,12.30
2022-11-05T15:37:22.135Z,12.30
2022-11-05T15:39:51.832Z,12.30
2022-11-05T15:42:25.314Z,12.20
2022-11-05T15:44:57.603Z,12.10
2022-11-05T15:47:30.055Z,12.20
2022-11-05T15:50:15.372Z,12.20
2022-11-05T15:52:51.576Z,12.20
2022-11-05T15:55:24.352Z,12.20
2022-11-05T15:58:04.401Z,12.10
2022-11-05T16:00:34.472Z,12.20
2022-11-05T16:03:18.344Z,12.10
2022-11-05T16:05:48.174Z,12.10
2022-11-05T16:08:19.441Z,12.10
2022-11-05T16:10:52.012Z,12.00
2022-11-05T16:13:51.746Z,12.00
2022-11-05T16:16:18.536Z,12.00
2022-11-05T16:18:45.567Z,11.90
2022-11-05T16:21:18.802Z,11.90
2022-11-05T16:23:48.602Z,11.90
2022-11-05T16:26:55.795Z,11.90
2022-11-05T16:29:23.569Z,11.90
2022-11-05T16:31:52.641Z,11.80
2022-11-05T16:34:46.689Z,11.80
2022-11-05T16:37:18.286Z,11.80
2022-11-05T16:39:47.044Z,11.70
2022-11-05T16:42:23.014Z,11.70
2022-11-05T16:44:51.222Z,11.70
2022-11-05T16:47:19.706Z,11.60
2022-11-05T16:49:49.840Z,11.60
2022-11-05T16:52:16.677Z,11.60
2022-11-05T16:54:43.540Z,11.60
2022-11-05T16:57:24.156Z,11.50
2022-11-05T16:59:50.967Z,11.50
2022-11-05T17:02:17.747Z,11.50
2022-11-05T17:04:44.860Z,11.50
2022-11-05T17:07:11.700Z,11.50
2022-11-05T17:09:39.079Z,11.50
2022-11-05T17:12:06.167Z,11.50
2022-11-05T17:14:33.023Z,11.50
2022-11-05T17:17:01.106Z,11.60
2022-11-05T17:19:27.915Z,11.60
2022-11-05T17:21:54.862Z,11.50
2022-11-05T17:24:21.775Z,11.60
2022-11-05T17:26:48.620Z,11.50
2022-11-05T17:29:15.447Z,11.50
2022-11-05T17:31:42.537Z,11.50
2022-11-05T17:34:10.346Z,11.60
2022-11-05T17:36:37.076Z,11.60
2022-11-05T17:39:04.172Z,11.60
2022-11-05T17:41:30.987Z,11.60
2022-11-05T17:43:59.077Z,11.60
2022-11-05T17:46:26.288Z,11.60
2022-11-05T17:48:53.074Z,11.60
2022-11-05T17:51:20.584Z,11.60
2022-11-05T17:53:49.120Z,11.60
2022-11-05T17:56:28.926Z,11.60
2022-11-05T17:59:00.499Z,11.60
2022-11-05T18:01:30.632Z,11.60
2022-11-05T18:03:57.791Z,11.60
2022-11-05T18:06:24.600Z,11.60
2022-11-05T18:08:52.535Z,11.60
2022-11-05T18:11:19.328Z,11.60
2022-11-05T18:13:46.558Z,11.60
2022-11-05T18:16:13.342Z,11.60
2022-11-05T18:18:40.095Z,11.60
2022-11-05T18:21:08.489Z,11.50
2022-11-05T18:23:36.561Z,11.50
2022-11-05T18:26:15.279Z,11.40
2022-11-05T18:28:43.327Z,11.40
2022-11-05T18:31:20.443Z,11.40
2022-11-05T18:33:48.844Z,11.40
2022-11-05T18:36:19.289Z,11.40
2022-11-05T18:38:46.818Z,11.40
2022-11-05T18:41:13.812Z,11.30
2022-11-05T18:43:41.048Z,11.30
2022-11-05T18:46:08.337Z,11.30
2022-11-05T18:48:35.891Z,11.30
2022-11-05T18:51:09.049Z,11.40
2022-11-05T18:53:35.873Z,11.40
2022-11-05T18:56:17.924Z,11.40
2022-11-05T18:58:45.445Z,11.40
2022-11-05T19:01:14.972Z,11.40
2022-11-05T19:03:42.154Z,11.40
2022-11-05T19:06:09.589Z,11.40
2022-11-05T19:08:36.446Z,11.40
2022-11-05T19:11:18.337Z,11.40
2022-11-05T19:13:46.145Z,11.40
2022-11-05T19:16:21.873Z,11.30
2022-11-05T19:18:49.472Z,11.30
2022-11-05T19:21:22.990Z,11.30
2022-11-05T19:23:50.504Z,11.20
2022-11-05T19:26:28.142Z,11.20
2022-11-05T19:28:57.931Z,11.20
2022-11-05T19:31:24.928Z,11.20
2022-11-05T19:33:52.497Z,11.20
2022-11-05T19:36:20.836Z,11.20
2022-11-05T19:38:56.173Z,11.20
2022-11-05T19:41:23.733Z,11.20
2022-11-05T19:43:50.688Z,11.20
2022-11-05T19:46:19.412Z,11.20
2022-11-05T19:48:46.436Z,11.20
2022-11-05T19:51:19.179Z,11.20
2022-11-05T19:53:46.604Z,11.20
2022-11-05T19:56:17.250Z,11.20
2022-11-05T19:58:44.188Z,11.20
2022-11-05T20:01:12.659Z,11.20
2022-11-05T20:03:40.148Z,11.10
2022-11-05T20:06:09.857Z,11.10
2022-11-05T20:08:47.776Z,11.10
2022-11-05T20:11:24.014Z,11.10
2022-11-05T20:13:50.845Z,11.10
2022-11-05T20:16:29.968Z,11.10
2022-11-05T20:18:59.496Z,11.10
2022-11-05T20:21:27.207Z,11.10
2022-11-05T20:23:56.439Z,11.10
2022-11-05T20:26:23.296Z,11.10
2022-11-05T20:28:50.745Z,11.10
2022-11-05T20:31:18.493Z,11.00
2022-11-05T20:33:45.662Z,11.00
2022-11-05T20:36:16.764Z,11.00
2022-11-05T20:38:47.477Z,11.00
2022-11-05T20:41:15.635Z,10.90
2022-11-05T20:43:44.179Z,10.90
2022-11-05T20:46:14.155Z,10.80
2022-11-05T20:48:41.501Z,10.80
2022-11-05T20:51:10.925Z,10.80
2022-11-05T20:53:38.272Z,10.80
2022-11-05T20:56:08.580Z,10.80
2022-11-05T20:58:37.098Z,10.80
2022-11-05T21:01:05.537Z,10.80
2022-11-05T21:03:32.634Z,10.80
2022-11-05T21:06:03.999Z,10.80
2022-11-05T21:08:30.883Z,10.80
2022-11-05T21:10:58.286Z,10.80
2022-11-05T21:13:26.380Z,10.80
2022-11-05T21:15:55.722Z,10.80
2022-11-05T21:18:25.477Z,10.80
2022-11-05T21:20:52.486Z,10.80
2022-11-05T21:23:19.808Z,10.80
2022-11-05T21:25:46.668Z,10.80
2022-11-05T21:28:16.290Z,10.80
2022-11-05T21:30:45.732Z,10.80
2022-11-05T21:33:14.168Z,10.80
2022-11-05T21:35:48.477Z,10.80
2022-11-05T21:38:17.634Z,10.80
2022-11-05T21:40:45.584Z,10.80
2022-11-05T21:43:13.090Z,10.80
2022-11-05T21:45:42.089Z,10.80
2022-11-05T21:48:09.205Z,10.80
2022-11-05T21:50:56.816Z,10.80
2022-11-05T21:53:42.662Z,10.80
2022-11-05T21:56:36.532Z,10.80
2022-11-05T21:59:23.545Z,10.80
2022-11-05T22:01:50.993Z,10.80
2022-11-05T22:04:17.896Z,10.80
2022-11-05T22:06:44.629Z,10.70
2022-11-05T22:09:11.391Z,10.70
2022-11-05T22:11:38.601Z,10.70
2022-11-05T22:14:05.700Z,10.70
2022-11-05T22:16:33.481Z,10.70
2022-11-05T22:19:00.330Z,10.70
2022-11-05T22:21:27.081Z,10.70
2022-11-05T22:23:55.819Z,10.70
2022-11-05T22:26:23.985Z,10.70
2022-11-05T22:28:53.658Z,10.70
2022-11-05T22:31:22.560Z,10.60
2022-11-05T22:33:49.727Z,10.60
2022-11-05T22:36:16.560Z,10.70
2022-11-05T22:38:43.654Z,10.60
2022-11-05T22:41:14.345Z,10.60
2022-11-05T22:43:41.253Z,10.60
2022-11-05T22:46:15.423Z,10.60
2022-11-05T22:48:44.942Z,10.60
2022-11-05T22:51:24.716Z,10.60
2022-11-05T22:53:52.359Z,10.60
2022-11-05T22:56:23.306Z,10.60
2022-11-05T22:58:51.303Z,10.60
2022-11-05T23:01:19.586Z,10.60
2022-11-05T23:03:47.906Z,10.60
2022-11-05T23:06:37.142Z,10.60
2022-11-05T23:09:32.053Z,10.60
2022-11-05T23:11:59.278Z,10.60
2022-11-05T23:14:26.823Z,10.60
2022-11-05T23:17:13.046Z,10.60
2022-11-05T23:19:58.923Z,10.60
2022-11-05T23:22:49.362Z,10.60
2022-11-05T23:25:21.197Z,10.60
2022-11-05T23:27:52.602Z,10.60
2022-11-05T23:30:25.422Z,10.60
2022-11-05T23:32:53.809Z,10.60
2022-11-05T23:35:43.078Z,10.60
2022-11-05T23:38:28.311Z,10.60
2022-11-05T23:41:17.780Z,10.60
2022-11-05T23:44:03.398Z,10.60
2022-11-05T23:46:48.633Z,10.60
2022-11-05T23:49:15.519Z,10.60
2022-11-05T23:51:42.811Z,10.60
2022-11-05T23:54:09.628Z,10.60
2022-11-05T23:56:36.570Z,10.50
2022-11-05T23:59:04.767Z,10.60
